Time;durP1;ratioP1;P1;durP2;ratioP2;P2;SDS_P1;SDS_P2;PMS_P1;PMS_P2;Temp;Humidity;BMP_temperature;BMP_pressure;BME280_temperature;BME280_humidity;BME280_pressure;Samples;Min_cycle;Max_cycle;Signal;HPM_P1;HPM_P2
2022/07/26 00:02:02;;;;;;;;;10.00;10.00;;;27.27;97336.70;;;;119248;1186;25845;-67
2022/07/26 00:04:30;;;;;;;;;9.50;7.50;;;27.14;97335.30;;;;119215;1188;25564;-68
2022/07/26 00:06:58;;;;;;;;;10.50;9.00;;;27.22;97333.09;;;;119053;1189;24860;-69
2022/07/26 00:09:26;;;;;;;;;9.75;8.75;;;27.03;97335.88;;;;118983;1187;25202;-67
2022/07/26 00:11:54;;;;;;;;;8.00;7.75;;;26.97;97334.59;;;;119012;1188;25013;-67
2022/07/26 00:14:22;;;;;;;;;8.00;8.00;;;26.91;97332.05;;;;119218;1187;26477;-67
2022/07/26 00:16:50;;;;;;;;;11.50;9.00;;;26.81;97331.86;;;;119244;1187;25095;-68
2022/07/26 00:19:18;;;;;;;;;11.25;9.50;;;26.68;97328.48;;;;119236;1187;25219;-68
2022/07/26 00:21:47;;;;;;;;;10.25;9.00;;;26.70;97326.05;;;;119225;1188;25762;-67
2022/07/26 00:24:15;;;;;;;;;10.75;8.50;;;26.81;97320.88;;;;118981;1189;25464;-68
2022/07/26 00:26:42;;;;;;;;;8.50;8.50;;;26.66;97322.57;;;;119209;1187;25119;-68
2022/07/26 00:29:10;;;;;;;;;9.75;8.50;;;26.64;97320.84;;;;118974;1189;25958;-67
2022/07/26 00:31:38;;;;;;;;;7.00;7.00;;;26.59;97319.99;;;;119045;1188;25149;-67
2022/07/26 00:34:06;;;;;;;;;8.75;8.75;;;26.45;97315.90;;;;119180;1187;25364;-67
2022/07/26 00:36:34;;;;;;;;;10.25;8.75;;;26.43;97314.36;;;;119190;1186;25251;-67
2022/07/26 00:39:07;;;;;;;;;8.50;8.50;;;26.39;97315.67;;;;119212;1188;25645;-67
2022/07/26 00:41:36;;;;;;;;;12.25;8.00;;;26.42;97313.48;;;;119221;1187;25449;-68
2022/07/26 00:44:04;;;;;;;;;12.25;8.25;;;26.47;97309.04;;;;119020;1188;25215;-68
2022/07/26 00:46:32;;;;;;;;;10.75;10.00;;;26.50;97306.38;;;;119203;1187;25349;-68
2022/07/26 00:49:00;;;;;;;;;9.25;9.25;;;26.46;97306.11;;;;119233;1187;26157;-67
2022/07/26 00:51:28;;;;;;;;;10.50;9.75;;;26.49;97306.48;;;;119223;1187;25679;-67
2022/07/26 00:53:56;;;;;;;;;8.33;8.33;;;26.43;97306.63;;;;119199;1188;25571;-68
2022/07/26 00:56:25;;;;;;;;;8.00;8.00;;;26.33;97304.42;;;;119173;1186;25679;-69
2022/07/26 00:58:52;;;;;;;;;8.75;8.75;;;26.31;97303.59;;;;118996;1187;25238;-67
2022/07/26 01:01:20;;;;;;;;;11.00;9.25;;;26.24;97303.94;;;;118902;1190;25635;-69
2022/07/26 01:03:53;;;;;;;;;10.00;8.50;;;26.27;97302.77;;;;118969;1189;25131;-69
2022/07/26 01:06:22;;;;;;;;;8.25;8.25;;;26.31;97297.55;;;;119011;1189;25478;-68
2022/07/26 01:08:54;;;;;;;;;10.00;10.00;;;26.33;97296.44;;;;119005;1189;25162;-68
2022/07/26 01:11:22;;;;;;;;;11.33;10.00;;;26.28;97296.65;;;;119019;1189;25156;-67
2022/07/26 01:13:50;;;;;;;;;12.00;12.00;;;26.24;97296.38;;;;119059;1188;24812;-67
2022/07/26 01:16:18;;;;;;;;;11.25;11.00;;;26.26;97297.06;;;;118982;1189;24852;-68
2022/07/26 01:18:46;;;;;;;;;11.50;9.00;;;26.22;97297.02;;;;119166;1186;25124;-68
2022/07/26 01:21:14;;;;;;;;;10.75;8.75;;;26.17;97295.66;;;;119180;1187;25602;-68
2022/07/26 01:23:42;;;;;;;;;9.67;8.00;;;26.14;97293.80;;;;119169;1186;24968;-68
2022/07/26 01:26:11;;;;;;;;;16.00;11.00;;;26.12;97291.53;;;;118919;1189;25271;-67
2022/07/26 01:28:41;;;;;;;;;10.50;10.50;;;26.05;97293.80;;;;119182;1187;24934;-68
2022/07/26 01:31:09;;;;;;;;;11.25;9.25;;;25.97;97292.92;;;;119187;1188;26301;-68
2022/07/26 01:33:37;;;;;;;;;11.50;10.00;;;25.98;97293.38;;;;119162;1187;25487;-68
2022/07/26 01:36:05;;;;;;;;;10.75;9.00;;;25.91;97295.80;;;;119163;1188;25121;-67
2022/07/26 01:38:33;;;;;;;;;6.75;5.50;;;25.83;97299.27;;;;119172;1187;25011;-67
2022/07/26 01:41:00;;;;;;;;;10.00;8.50;;;25.70;97297.53;;;;118950;1187;25184;-68
2022/07/26 01:43:28;;;;;;;;;9.00;6.50;;;25.65;97297.42;;;;119191;1186;25763;-68
2022/07/26 01:45:57;;;;;;;;;12.25;8.75;;;25.72;97295.66;;;;119161;1187;25609;-67
2022/07/26 01:48:25;;;;;;;;;10.50;7.75;;;25.76;97292.52;;;;119168;1186;25677;-68
2022/07/26 01:50:53;;;;;;;;;8.50;8.00;;;25.73;97290.77;;;;119173;1187;25406;-69
2022/07/26 01:53:21;;;;;;;;;8.00;8.00;;;25.71;97295.33;;;;119170;1188;25713;-69
2022/07/26 01:55:49;;;;;;;;;10.00;9.50;;;25.67;97295.09;;;;119170;1187;25976;-69
2022/07/26 01:58:17;;;;;;;;;10.00;10.00;;;25.69;97294.35;;;;119180;1187;25296;-68
2022/07/26 02:00:45;;;;;;;;;9.75;8.50;;;25.66;97294.48;;;;119175;1187;25770;-69
2022/07/26 02:03:13;;;;;;;;;5.75;5.75;;;25.65;97293.27;;;;119178;1187;25566;-68
2022/07/26 02:05:41;;;;;;;;;9.75;9.00;;;25.69;97295.44;;;;119154;1186;25195;-69
2022/07/26 02:08:10;;;;;;;;;9.00;8.25;;;25.61;97293.89;;;;119200;1187;25226;-67
2022/07/26 02:13:29;;;;;;;;;6.50;6.50;;;25.57;97294.50;;;;119031;1188;25435;-68
2022/07/26 02:16:00;;;;;;;;;10.25;7.75;;;25.42;97292.66;;;;119000;1188;26073;-68
2022/07/26 02:18:29;;;;;;;;;8.75;7.75;;;25.45;97294.95;;;;119201;1188;25739;-68
2022/07/26 02:20:58;;;;;;;;;8.00;8.00;;;25.31;97290.02;;;;119190;1187;25059;-69
2022/07/26 02:23:26;;;;;;;;;10.75;10.75;;;25.14;97283.34;;;;119154;1187;24945;-68
2022/07/26 02:25:55;;;;;;;;;11.67;10.33;;;25.08;97287.41;;;;119181;1187;24862;-68
2022/07/26 02:28:23;;;;;;;;;8.00;7.50;;;25.15;97291.01;;;;119192;1188;24912;-69
2022/07/26 02:30:51;;;;;;;;;7.25;7.25;;;25.11;97294.30;;;;119235;1187;25687;-69
2022/07/26 02:33:20;;;;;;;;;6.50;6.50;;;25.03;97291.11;;;;119332;1187;25384;-68
2022/07/26 02:35:47;;;;;;;;;7.75;6.50;;;24.97;97287.52;;;;119309;1188;25274;-68
2022/07/26 02:38:15;;;;;;;;;11.25;9.75;;;24.93;97285.98;;;;119023;1189;25680;-70
2022/07/26 02:40:43;;;;;;;;;16.00;11.25;;;24.80;97292.27;;;;119099;1188;25562;-69
2022/07/26 02:43:11;;;;;;;;;8.75;7.25;;;24.80;97288.67;;;;119103;1187;25501;-69
2022/07/26 02:45:39;;;;;;;;;8.50;8.50;;;24.76;97288.61;;;;119103;1188;26333;-69
2022/07/26 02:48:07;;;;;;;;;9.50;8.75;;;24.75;97287.81;;;;119113;1189;24867;-69
2022/07/26 02:50:35;;;;;;;;;9.00;9.00;;;24.69;97287.98;;;;119137;1187;25684;-69
2022/07/26 02:53:03;;;;;;;;;10.67;10.33;;;24.65;97288.59;;;;119076;1189;24980;-69
2022/07/26 02:55:31;;;;;;;;;12.00;9.50;;;24.58;97287.20;;;;118963;1190;25480;-69
2022/07/26 02:57:58;;;;;;;;;10.50;8.25;;;24.58;97284.80;;;;119084;1188;25181;-69
2022/07/26 03:00:27;;;;;;;;;11.25;10.50;;;24.51;97287.63;;;;119147;1188;25555;-68
2022/07/26 03:02:55;;;;;;;;;10.25;10.25;;;24.45;97292.52;;;;119070;1189;25059;-69
2022/07/26 03:05:22;;;;;;;;;10.50;8.75;;;24.40;97295.82;;;;119084;1189;25946;-69
2022/07/26 03:07:51;;;;;;;;;15.00;11.75;;;24.36;97294.29;;;;119038;1189;25133;-68
2022/07/26 03:10:18;;;;;;;;;10.50;10.50;;;24.30;97292.30;;;;118982;1189;25368;-69
2022/07/26 03:12:46;;;;;;;;;8.75;8.00;;;24.27;97289.15;;;;118976;1189;25975;-69
2022/07/26 03:15:14;;;;;;;;;12.33;10.67;;;24.25;97289.73;;;;118920;1190;25795;-69
2022/07/26 03:17:42;;;;;;;;;11.25;10.00;;;24.14;97288.20;;;;118989;1189;26301;-69
2022/07/26 03:20:11;;;;;;;;;12.00;10.00;;;24.12;97289.30;;;;119083;1189;26098;-68
2022/07/26 03:22:38;;;;;;;;;11.25;9.25;;;24.06;97289.46;;;;119073;1188;25069;-69
2022/07/26 03:25:07;;;;;;;;;6.00;6.00;;;24.10;97285.61;;;;119003;1188;25236;-68
2022/07/26 03:27:35;;;;;;;;;9.25;9.00;;;24.07;97285.34;;;;119021;1189;25388;-68
2022/07/26 03:30:04;;;;;;;;;11.00;10.00;;;24.06;97285.54;;;;119072;1187;24930;-68
2022/07/26 03:32:32;;;;;;;;;9.00;9.00;;;24.06;97283.96;;;;118978;1189;25239;-69
2022/07/26 03:35:00;;;;;;;;;11.50;8.75;;;24.03;97282.91;;;;119013;1187;25413;-69
2022/07/26 03:37:27;;;;;;;;;9.00;6.50;;;23.92;97283.21;;;;119018;1188;26304;-69
2022/07/26 03:40:17;;;;;;;;;9.75;9.75;;;23.99;97281.73;;;;119005;1188;26036;-69
2022/07/26 03:42:46;;;;;;;;;11.00;10.00;;;23.94;97281.27;;;;119020;1188;25002;-69
2022/07/26 03:45:15;;;;;;;;;13.50;11.00;;;23.86;97278.94;;;;119035;1188;25712;-69
2022/07/26 03:47:45;;;;;;;;;7.25;6.50;;;23.89;97276.03;;;;119100;1188;25839;-69
2022/07/26 03:50:13;;;;;;;;;11.25;10.75;;;23.86;97276.49;;;;119065;1188;25330;-69
2022/07/26 03:52:41;;;;;;;;;12.00;10.25;;;23.84;97281.46;;;;119051;1188;25650;-69
2022/07/26 03:57:56;;;;;;;;;15.67;12.00;;;23.88;97271.52;;;;119103;1188;25828;-67
2022/07/26 04:00:24;;;;;;;;;13.25;11.00;;;24.12;97275.06;;;;119014;1189;24733;-68
2022/07/26 04:02:51;;;;;;;;;14.25;10.75;;;24.51;97276.46;;;;118930;1191;24729;-67
2022/07/26 04:05:19;;;;;;;;;10.50;9.00;;;24.81;97274.10;;;;118990;1190;25341;-68
2022/07/26 04:07:50;;;;;;;;;11.25;8.50;;;25.09;97271.71;;;;119017;1189;25864;-67
2022/07/26 04:10:21;;;;;;;;;9.50;9.50;;;25.34;97271.38;;;;119073;1187;26351;-66
2022/07/26 04:12:49;;;;;;;;;12.50;8.75;;;25.50;97273.23;;;;118955;1190;26182;-66
2022/07/26 04:15:17;;;;;;;;;8.00;7.00;;;25.72;97277.77;;;;118970;1190;26213;-66
2022/07/26 04:17:47;;;;;;;;;8.50;8.50;;;25.85;97271.91;;;;119066;1189;25227;-66
2022/07/26 04:20:15;;;;;;;;;8.75;8.00;;;26.03;97274.67;;;;119254;1187;25040;-66
2022/07/26 04:22:43;;;;;;;;;7.00;6.50;;;26.39;97279.88;;;;119181;1188;25629;-67
2022/07/26 04:25:11;;;;;;;;;12.00;8.25;;;26.74;97272.30;;;;119268;1188;25595;-66
2022/07/26 04:27:39;;;;;;;;;7.00;7.00;;;26.96;97273.68;;;;119066;1190;26481;-67
2022/07/26 04:30:08;;;;;;;;;9.50;9.50;;;27.14;97271.25;;;;119271;1187;25649;-66
2022/07/26 04:32:43;;;;;;;;;8.25;8.00;;;27.28;97271.14;;;;118987;1190;25495;-67
2022/07/26 04:35:14;;;;;;;;;8.25;7.25;;;27.19;97271.59;;;;119004;1189;25468;-70
2022/07/26 04:37:43;;;;;;;;;12.50;8.00;;;27.13;97266.16;;;;118996;1189;25704;-68
2022/07/26 04:40:16;;;;;;;;;10.75;8.75;;;27.12;97260.46;;;;119003;1189;24924;-67
2022/07/26 04:42:49;;;;;;;;;12.25;9.00;;;27.16;97259.46;;;;119113;1189;24926;-67
2022/07/26 04:45:17;;;;;;;;;7.75;7.75;;;27.25;97263.70;;;;119071;1189;25191;-66
2022/07/26 04:47:48;;;;;;;;;11.00;10.00;;;27.30;97264.09;;;;118985;1190;24730;-70
2022/07/26 04:50:18;;;;;;;;;11.00;10.00;;;27.35;97263.95;;;;119039;1189;24731;-69
2022/07/26 04:52:46;;;;;;;;;12.50;10.00;;;27.38;97265.95;;;;119033;1189;25788;-67
2022/07/26 04:55:14;;;;;;;;;12.50;11.00;;;27.43;97269.70;;;;119089;1187;25739;-73
2022/07/26 04:57:43;;;;;;;;;17.25;11.50;;;27.47;97266.95;;;;119312;1186;25722;-67
2022/07/26 05:00:20;;;;;;;;;17.00;10.00;;;27.76;97267.13;;;;119117;1190;25719;-62
2022/07/26 05:02:52;;;;;;;;;20.25;12.50;;;28.05;97276.09;;;;119051;1189;26293;-62
2022/07/26 05:05:21;;;;;;;;;16.50;12.00;;;27.93;97276.67;;;;119057;1187;25786;-61
2022/07/26 05:07:53;;;;;;;;;23.50;13.00;;;27.85;97274.37;;;;119004;1189;25287;-61
2022/07/26 05:10:26;;;;;;;;;22.50;14.50;;;27.79;97273.26;;;;118900;1190;25365;-61
2022/07/26 05:12:53;;;;;;;;;14.50;10.75;;;27.81;97270.06;;;;118963;1190;26174;-61
2022/07/26 05:15:21;;;;;;;;;18.75;14.50;;;27.79;97271.56;;;;118956;1189;25144;-61
2022/07/26 05:17:50;;;;;;;;;16.25;10.50;;;27.77;97269.52;;;;119371;1190;25365;-62
2022/07/26 05:20:17;;;;;;;;;11.50;11.50;;;28.31;97268.33;;;;119350;1191;26253;-62
2022/07/26 05:22:45;;;;;;;;;17.00;11.25;;;28.81;97273.52;;;;119393;1189;25625;-62
2022/07/26 05:25:13;;;;;;;;;17.00;10.25;;;29.17;97270.60;;;;119382;1189;25036;-62
2022/07/26 05:27:41;;;;;;;;;16.50;11.25;;;29.44;97270.45;;;;119401;1189;25619;-62
2022/07/26 05:30:09;;;;;;;;;13.25;12.00;;;29.63;97275.02;;;;119124;1188;24917;-61
2022/07/26 05:32:38;;;;;;;;;17.00;13.00;;;29.39;97278.67;;;;118962;1189;24996;-61
2022/07/26 05:35:07;;;;;;;;;13.75;10.00;;;29.00;97277.66;;;;118978;1189;25502;-61
2022/07/26 05:37:35;;;;;;;;;15.25;13.75;;;28.74;97277.67;;;;119007;1189;25722;-61
2022/07/26 05:40:04;;;;;;;;;17.25;13.75;;;28.58;97278.56;;;;118993;1189;26494;-61
2022/07/26 05:42:32;;;;;;;;;13.00;11.00;;;28.47;97277.45;;;;118980;1189;26388;-61
2022/07/26 05:45:00;;;;;;;;;13.00;10.00;;;28.39;97274.94;;;;118974;1190;25376;-61
2022/07/26 05:47:28;;;;;;;;;16.75;11.50;;;28.33;97275.32;;;;118989;1189;25689;-61
2022/07/26 05:49:55;;;;;;;;;15.50;12.25;;;28.29;97271.52;;;;118959;1189;26399;-61
2022/07/26 05:52:23;;;;;;;;;10.75;10.75;;;28.27;97272.50;;;;118981;1189;25587;-61
2022/07/26 05:54:51;;;;;;;;;15.00;11.00;;;28.26;97274.38;;;;118996;1189;24734;-61
2022/07/26 05:57:19;;;;;;;;;14.25;12.00;;;28.24;97270.16;;;;118988;1189;25419;-60
2022/07/26 05:59:46;;;;;;;;;16.25;11.25;;;28.23;97267.08;;;;118979;1189;25440;-60
2022/07/26 06:02:14;;;;;;;;;12.00;8.75;;;28.23;97262.02;;;;119004;1189;25172;-60
2022/07/26 06:04:42;;;;;;;;;16.50;11.75;;;28.24;97267.34;;;;118984;1189;25678;-63
2022/07/26 06:07:14;;;;;;;;;13.00;12.00;;;28.26;97270.91;;;;119169;1187;26191;-64
2022/07/26 06:09:42;;;;;;;;;18.00;12.50;;;28.34;97270.70;;;;119175;1187;25342;-73
2022/07/26 06:12:10;;;;;;;;;18.00;14.00;;;28.32;97268.19;;;;119212;1187;25506;-77
2022/07/26 06:14:38;;;;;;;;;15.67;13.67;;;28.27;97263.89;;;;118856;1190;25327;-72
2022/07/26 06:17:06;;;;;;;;;16.75;15.25;;;28.28;97260.17;;;;118982;1188;25810;-74
2022/07/26 06:19:34;;;;;;;;;18.25;16.25;;;28.16;97256.14;;;;119223;1186;25645;-79
2022/07/26 06:22:02;;;;;;;;;18.25;13.75;;;28.34;97255.60;;;;119212;1188;25361;-72
2022/07/26 06:24:30;;;;;;;;;15.00;14.25;;;28.51;97255.43;;;;119212;1188;25108;-73
2022/07/26 06:26:59;;;;;;;;;21.75;17.00;;;28.62;97249.80;;;;119023;1189;25070;-73
2022/07/26 06:29:32;;;;;;;;;23.25;14.75;;;28.79;97250.77;;;;119260;1188;25778;-67
2022/07/26 06:32:00;;;;;;;;;23.25;18.50;;;28.98;97247.39;;;;119232;1186;25788;-64
2022/07/26 06:34:29;;;;;;;;;16.00;12.75;;;28.98;97250.34;;;;119260;1187;25670;-65
2022/07/26 06:36:57;;;;;;;;;16.50;15.25;;;29.01;97248.27;;;;119258;1188;25863;-65
2022/07/26 06:39:25;;;;;;;;;23.50;20.00;;;29.04;97245.17;;;;119372;1187;25523;-66
2022/07/26 06:41:53;;;;;;;;;22.25;21.50;;;29.15;97239.20;;;;119355;1188;25598;-69
2022/07/26 06:44:21;;;;;;;;;17.75;15.25;;;29.30;97233.16;;;;119325;1188;25365;-61
2022/07/26 06:46:49;;;;;;;;;11.25;10.75;;;29.38;97231.30;;;;119252;1187;25090;-71
2022/07/26 06:49:17;;;;;;;;;15.75;14.50;;;29.39;97229.23;;;;119243;1187;25114;-65
2022/07/26 06:51:49;;;;;;;;;34.25;27.00;;;29.42;97227.39;;;;119179;1188;24904;-64
2022/07/26 06:54:17;;;;;;;;;21.00;17.25;;;29.39;97228.80;;;;119252;1188;25767;-69
2022/07/26 06:56:44;;;;;;;;;23.25;16.00;;;29.41;97231.41;;;;119148;1188;25300;-72
2022/07/26 06:59:12;;;;;;;;;21.25;15.75;;;29.39;97228.55;;;;119181;1187;25337;-72
2022/07/26 07:01:40;;;;;;;;;25.50;19.00;;;29.41;97226.65;;;;119238;1188;25408;-74
2022/07/26 07:04:28;;;;;;;;;22.50;19.00;;;29.50;97222.89;;;;119107;1188;25298;-63
2022/07/26 07:07:01;;;;;;;;;20.50;18.25;;;29.61;97226.00;;;;119367;1187;25532;-66
2022/07/26 07:09:33;;;;;;;;;21.67;18.33;;;29.77;97223.57;;;;119091;1189;25166;-64
2022/07/26 07:12:02;;;;;;;;;20.50;18.00;;;29.80;97225.05;;;;119278;1188;25249;-66
2022/07/26 07:14:38;;;;;;;;;16.00;14.50;;;29.81;97223.31;;;;119070;1189;26431;-64
2022/07/26 07:17:07;;;;;;;;;25.00;21.00;;;29.72;97221.71;;;;119259;1186;25906;-68
2022/07/26 07:19:40;;;;;;;;;18.75;16.25;;;29.74;97219.42;;;;119309;1187;25633;-69
2022/07/26 07:22:10;;;;;;;;;33.50;23.75;;;29.85;97222.52;;;;119085;1189;25634;-65
2022/07/26 07:24:40;;;;;;;;;22.50;18.00;;;29.84;97222.65;;;;119363;1187;24757;-64
2022/07/26 07:27:09;;;;;;;;;21.00;17.25;;;29.96;97222.84;;;;119301;1188;26182;-70
2022/07/26 07:29:38;;;;;;;;;15.25;15.00;;;30.05;97223.36;;;;119306;1187;25167;-65
2022/07/26 07:32:08;;;;;;;;;21.00;16.25;;;30.08;97223.79;;;;119040;1188;25737;-63
2022/07/26 07:34:46;;;;;;;;;19.75;17.00;;;30.14;97222.27;;;;119244;1188;25222;-65
2022/07/26 07:37:15;;;;;;;;;18.25;14.00;;;30.11;97225.64;;;;119211;1187;26252;-63
2022/07/26 07:39:43;;;;;;;;;14.00;13.00;;;30.25;97224.00;;;;119205;1189;26034;-63
2022/07/26 07:42:18;;;;;;;;;21.50;16.25;;;30.23;97223.71;;;;119216;1187;26953;-65
2022/07/26 07:44:46;;;;;;;;;15.50;13.50;;;30.20;97218.34;;;;119051;1189;25377;-64
2022/07/26 07:47:14;;;;;;;;;15.25;11.25;;;30.19;97215.48;;;;119053;1188;24795;-71
2022/07/26 07:49:42;;;;;;;;;13.00;12.33;;;30.25;97219.63;;;;119111;1189;25699;-70
2022/07/26 07:52:10;;;;;;;;;21.25;16.25;;;30.32;97223.81;;;;119241;1188;26477;-71
2022/07/26 07:54:38;;;;;;;;;19.75;15.75;;;30.42;97222.98;;;;119242;1186;25342;-67
2022/07/26 07:57:06;;;;;;;;;12.50;12.50;;;30.39;97224.60;;;;119301;1188;25438;-71
2022/07/26 07:59:34;;;;;;;;;16.75;15.75;;;30.44;97222.90;;;;119268;1187;24874;-69
2022/07/26 08:02:06;;;;;;;;;12.50;12.50;;;30.47;97224.00;;;;119089;1189;25447;-74
2022/07/26 08:04:34;;;;;;;;;15.50;12.50;;;30.46;97220.45;;;;119220;1187;24958;-65
2022/07/26 08:07:02;;;;;;;;;17.50;12.00;;;30.44;97218.36;;;;119304;1188;25092;-67
2022/07/26 08:09:30;;;;;;;;;13.50;11.00;;;30.62;97215.49;;;;119338;1188;24886;-68
2022/07/26 08:12:01;;;;;;;;;17.75;14.25;;;30.77;97216.59;;;;119294;1188;26306;-67
2022/07/26 08:14:29;;;;;;;;;11.75;10.50;;;30.79;97211.36;;;;119333;1186;26025;-69
2022/07/26 08:16:56;;;;;;;;;15.00;11.75;;;30.85;97206.10;;;;119143;1187;25494;-69
2022/07/26 08:19:25;;;;;;;;;12.00;10.75;;;30.80;97202.77;;;;119313;1187;24708;-66
2022/07/26 08:22:08;;;;;;;;;16.75;13.75;;;30.83;97198.27;;;;119269;1188;25597;-70
2022/07/26 08:24:37;;;;;;;;;13.25;10.25;;;30.79;97195.38;;;;119273;1188;25407;-69
2022/07/26 08:27:05;;;;;;;;;14.00;11.50;;;30.78;97197.95;;;;119285;1188;26059;-74
2022/07/26 08:29:34;;;;;;;;;17.50;12.50;;;30.80;97198.71;;;;119103;1189;25589;-73
2022/07/26 08:32:02;;;;;;;;;12.00;10.25;;;30.85;97199.77;;;;119226;1188;26075;-68
2022/07/26 08:34:30;;;;;;;;;11.25;10.00;;;30.83;97199.81;;;;119161;1187;25521;-73
2022/07/26 08:36:57;;;;;;;;;14.75;12.25;;;30.80;97199.02;;;;119334;1188;25685;-71
2022/07/26 08:39:46;;;;;;;;;15.25;11.00;;;30.83;97198.29;;;;119294;1188;25621;-73
2022/07/26 08:42:18;;;;;;;;;16.00;12.00;;;30.85;97194.57;;;;119089;1189;25110;-69
2022/07/26 08:44:50;;;;;;;;;14.67;11.00;;;30.79;97192.02;;;;119050;1187;25646;-67
2022/07/26 08:47:22;;;;;;;;;16.25;13.50;;;30.78;97189.59;;;;119035;1189;25137;-68
2022/07/26 08:50:09;;;;;;;;;12.25;9.75;;;30.87;97183.99;;;;119207;1187;25742;-68
2022/07/26 08:52:39;;;;;;;;;15.75;12.75;;;30.83;97182.78;;;;119248;1186;25121;-69
2022/07/26 08:55:08;;;;;;;;;12.00;11.25;;;30.83;97183.91;;;;119344;1188;24769;-68
2022/07/26 08:57:36;;;;;;;;;18.00;12.50;;;30.93;97180.54;;;;119281;1188;25799;-70
2022/07/26 09:00:30;;;;;;;;;11.00;11.00;;;30.92;97179.23;;;;119055;1189;24747;-70
2022/07/26 09:02:59;;;;;;;;;8.50;7.00;;;30.93;97180.43;;;;119149;1188;25068;-70
2022/07/26 09:05:33;;;;;;;;;8.25;8.25;;;30.93;97177.32;;;;119216;1188;25772;-69
2022/07/26 09:08:30;;;;;;;;;10.25;8.75;;;30.87;97177.50;;;;119233;1187;25455;-68
2022/07/26 09:10:58;;;;;;;;;14.00;9.50;;;30.95;97178.83;;;;119242;1188;25733;-68
2022/07/26 09:13:56;;;;;;;;;10.00;9.50;;;30.98;97181.77;;;;119329;1188;24818;-67
2022/07/26 09:16:24;;;;;;;;;11.00;11.00;;;31.08;97180.60;;;;119181;1186;24790;-67
2022/07/26 09:18:53;;;;;;;;;11.00;9.50;;;31.05;97179.05;;;;119249;1186;25141;-65
2022/07/26 09:21:32;;;;;;;;;13.75;7.75;;;31.12;97175.13;;;;118989;1188;25893;-70
2022/07/26 09:24:00;;;;;;;;;20.50;16.25;;;31.12;97172.44;;;;119331;1188;25790;-69
2022/07/26 09:26:28;;;;;;;;;15.00;12.75;;;31.17;97174.25;;;;119167;1187;24954;-65
2022/07/26 09:29:07;;;;;;;;;12.25;10.50;;;31.11;97176.95;;;;119075;1189;25650;-71
2022/07/26 09:31:37;;;;;;;;;15.50;12.00;;;31.07;97174.18;;;;119205;1188;25224;-66
2022/07/26 09:34:06;;;;;;;;;13.25;12.50;;;31.10;97175.23;;;;119257;1188;26337;-65
2022/07/26 09:36:50;;;;;;;;;10.50;10.50;;;31.11;97170.92;;;;119258;1188;25362;-69
2022/07/26 09:39:18;;;;;;;;;17.00;12.50;;;31.15;97174.25;;;;119122;1188;26090;-76
2022/07/26 09:42:07;;;;;;;;;11.75;10.75;;;31.29;97172.10;;;;119127;1186;25292;-68
2022/07/26 09:44:56;;;;;;;;;16.25;11.75;;;31.40;97171.49;;;;119053;1190;25297;-67
2022/07/26 09:47:35;;;;;;;;;9.50;9.50;;;31.43;97166.05;;;;119154;1189;25563;-68
2022/07/26 09:50:14;;;;;;;;;15.00;11.00;;;31.48;97166.98;;;;119199;1188;25410;-68
2022/07/26 09:53:09;;;;;;;;;9.25;8.75;;;31.51;97168.57;;;;119267;1186;25779;-75
2022/07/26 09:55:43;;;;;;;;;12.50;9.50;;;31.48;97166.66;;;;118956;1189;26073;-69
2022/07/26 09:58:12;;;;;;;;;9.00;8.50;;;31.33;97163.09;;;;119133;1188;25017;-72
2022/07/26 10:00:42;;;;;;;;;10.50;10.25;;;31.27;97166.46;;;;119182;1188;25405;-71
2022/07/26 10:03:10;;;;;;;;;10.25;8.25;;;31.27;97163.20;;;;119065;1188;25414;-66
2022/07/26 10:05:39;;;;;;;;;11.00;9.50;;;31.24;97163.21;;;;119262;1188;25997;-67
2022/07/26 10:08:07;;;;;;;;;9.67;8.00;;;31.28;97160.02;;;;119020;1189;25098;-68
2022/07/26 10:10:57;;;;;;;;;10.75;9.50;;;31.25;97156.91;;;;119199;1188;25106;-69
2022/07/26 10:13:26;;;;;;;;;8.00;6.00;;;31.27;97159.05;;;;119216;1188;25381;-69
2022/07/26 10:15:55;;;;;;;;;9.75;9.25;;;31.30;97154.13;;;;119074;1189;25673;-69
2022/07/26 10:18:36;;;;;;;;;9.50;9.50;;;31.31;97151.51;;;;119034;1189;25865;-68
2022/07/26 10:21:14;;;;;;;;;8.75;8.75;;;31.33;97147.00;;;;119172;1188;25204;-68
2022/07/26 10:23:55;;;;;;;;;11.33;8.00;;;31.36;97146.23;;;;119175;1187;26321;-72
2022/07/26 10:26:35;;;;;;;;;14.00;9.00;;;31.35;97144.22;;;;118986;1189;25221;-69
2022/07/26 10:29:15;;;;;;;;;8.75;6.00;;;31.28;97144.10;;;;119038;1189;25348;-71
2022/07/26 10:31:44;;;;;;;;;12.00;9.50;;;31.28;97145.31;;;;119117;1188;24956;-67
2022/07/26 10:34:29;;;;;;;;;9.00;8.25;;;31.26;97142.83;;;;119067;1188;25271;-68
2022/07/26 10:36:59;;;;;;;;;6.00;6.00;;;31.23;97140.12;;;;119257;1186;25404;-69
2022/07/26 10:39:27;;;;;;;;;9.25;8.25;;;31.25;97137.66;;;;118965;1189;25279;-74
2022/07/26 10:42:00;;;;;;;;;7.75;6.50;;;31.16;97136.03;;;;119226;1187;25376;-68
2022/07/26 10:44:30;;;;;;;;;8.25;6.00;;;31.16;97132.90;;;;119231;1187;24732;-70
2022/07/26 10:47:00;;;;;;;;;5.00;5.00;;;31.21;97129.67;;;;119222;1187;26045;-69
2022/07/26 10:49:40;;;;;;;;;8.50;8.50;;;31.18;97122.52;;;;119222;1187;25250;-69
2022/07/26 10:52:12;;;;;;;;;8.25;8.25;;;31.17;97117.40;;;;119276;1186;24897;-69
2022/07/26 10:54:58;;;;;;;;;6.00;6.00;;;31.19;97116.17;;;;119259;1186;25457;-69
2022/07/26 10:57:29;;;;;;;;;5.50;5.50;;;31.19;97112.94;;;;119316;1186;24867;-69
2022/07/26 10:59:58;;;;;;;;;8.00;6.50;;;31.21;97110.03;;;;118979;1190;24940;-70
2022/07/26 11:02:30;;;;;;;;;8.25;7.00;;;31.19;97108.94;;;;119379;1187;25326;-71
2022/07/26 11:05:11;;;;;;;;;6.25;6.25;;;31.31;97110.73;;;;119155;1188;25722;-72
2022/07/26 11:07:55;;;;;;;;;8.75;7.00;;;31.20;97107.05;;;;119094;1187;25049;-69
2022/07/26 11:10:25;;;;;;;;;6.00;6.00;;;31.05;97108.11;;;;119121;1188;24882;-72
2022/07/26 11:13:10;;;;;;;;;8.25;6.75;;;30.92;97103.27;;;;118584;1189;24883;-70
2022/07/26 11:15:47;;;;;;;;;9.25;8.25;;;30.94;97101.64;;;;119104;1187;25714;-63
2022/07/26 11:18:23;;;;;;;;;9.75;7.75;;;30.91;97105.88;;;;119091;1187;25592;-66
2022/07/26 11:20:54;;;;;;;;;7.00;6.00;;;30.84;97102.21;;;;119110;1188;25514;-64
2022/07/26 11:23:31;;;;;;;;;6.50;6.50;;;30.76;97095.74;;;;119077;1188;24922;-72
2022/07/26 11:26:08;;;;;;;;;6.50;6.50;;;30.74;97093.54;;;;119013;1189;24856;-72
2022/07/26 11:28:58;;;;;;;;;6.25;6.25;;;30.80;97090.63;;;;119098;1188;25601;-72
2022/07/26 11:31:38;;;;;;;;;7.50;7.00;;;30.81;97089.33;;;;118936;1188;25685;-68
2022/07/26 11:34:28;;;;;;;;;6.25;4.50;;;30.89;97088.90;;;;119144;1188;25590;-69
2022/07/26 11:36:58;;;;;;;;;7.00;5.00;;;30.83;97086.29;;;;119134;1187;25508;-69
2022/07/26 11:39:34;;;;;;;;;6.75;5.00;;;30.78;97080.91;;;;119136;1187;25523;-70
2022/07/26 11:42:10;;;;;;;;;5.25;5.25;;;30.77;97076.99;;;;119138;1187;25489;-69
2022/07/26 11:44:43;;;;;;;;;4.75;4.75;;;30.83;97067.21;;;;118733;1190;25319;-70
2022/07/26 11:47:13;;;;;;;;;7.00;6.00;;;30.84;97074.14;;;;118876;1188;24764;-63
2022/07/26 11:49:42;;;;;;;;;5.25;5.25;;;30.88;97066.95;;;;119176;1187;25301;-63
2022/07/26 11:52:30;;;;;;;;;7.00;6.33;;;30.89;97072.82;;;;119112;1188;26095;-63
2022/07/26 11:54:59;;;;;;;;;5.67;5.67;;;30.83;97074.92;;;;119159;1186;25241;-67
2022/07/26 11:57:30;;;;;;;;;6.75;5.50;;;30.77;97074.91;;;;119125;1187;25387;-64
2022/07/26 11:59:59;;;;;;;;;5.00;5.00;;;30.74;97068.45;;;;118979;1189;26196;-65
2022/07/26 12:02:29;;;;;;;;;6.00;6.00;;;30.78;97063.79;;;;119100;1188;25268;-67
2022/07/26 12:05:16;;;;;;;;;5.00;4.25;;;31.08;97069.58;;;;118953;1189;25406;-66
2022/07/26 12:07:59;;;;;;;;;6.25;6.00;;;31.14;97062.52;;;;119073;1188;25009;-67
2022/07/26 12:10:27;;;;;;;;;8.50;7.25;;;31.19;97058.95;;;;119133;1188;26309;-67
2022/07/26 12:13:11;;;;;;;;;17.00;13.50;;;31.19;97052.65;;;;119123;1187;25155;-67
2022/07/26 12:15:57;;;;;;;;;26.50;18.25;;;31.14;97054.10;;;;119161;1187;25761;-66
2022/07/26 12:18:27;;;;;;;;;26.75;12.50;;;31.21;97050.63;;;;119155;1187;25220;-68
2022/07/26 12:21:06;;;;;;;;;25.00;18.75;;;31.12;97055.61;;;;118946;1189;24780;-67
2022/07/26 12:23:49;;;;;;;;;28.67;16.67;;;31.16;97049.93;;;;119175;1187;25098;-67